createdAt,value
2019-01-20T00:01:54.631Z,29.63
2019-01-20T00:04:25.171Z,34.20
2019-01-20T00:06:58.210Z,30.77
2019-01-20T00:09:29.733Z,32.17
2019-01-20T00:12:00.484Z,34.87
2019-01-20T00:14:30.912Z,35.47
2019-01-20T00:17:01.696Z,34.07
2019-01-20T00:19:32.132Z,34.17
2019-01-20T00:22:02.702Z,33.50
2019-01-20T00:24:33.272Z,32.47
2019-01-20T00:27:03.937Z,32.27
2019-01-20T00:29:34.455Z,31.27
2019-01-20T00:32:05.168Z,32.37
2019-01-20T00:34:36.073Z,35.10
2019-01-20T00:37:06.830Z,31.97
2019-01-20T00:39:37.550Z,33.07
2019-01-20T00:42:08.946Z,35.57
2019-01-20T00:44:39.535Z,35.17
2019-01-20T00:47:10.199Z,35.00
2019-01-20T00:49:40.802Z,35.03
2019-01-20T00:52:11.952Z,35.20
2019-01-20T00:54:42.490Z,36.87
2019-01-20T00:57:13.138Z,31.97
2019-01-20T00:59:43.678Z,35.07
2019-01-20T01:02:14.145Z,34.90
2019-01-20T01:04:44.611Z,37.50
2019-01-20T01:07:15.193Z,37.60
2019-01-20T01:09:45.818Z,38.97
2019-01-20T01:12:19.412Z,39.47
2019-01-20T01:14:50.483Z,39.10
2019-01-20T01:17:21.016Z,39.50
2019-01-20T01:19:53.260Z,37.77
2019-01-20T01:22:23.756Z,36.03
2019-01-20T01:24:54.321Z,40.23
2019-01-20T01:27:24.865Z,37.57
2019-01-20T01:29:55.451Z,38.97
2019-01-20T01:32:26.046Z,42.60
2019-01-20T01:34:56.839Z,43.53
2019-01-20T01:37:27.501Z,43.53
2019-01-20T01:39:58.171Z,45.97
2019-01-20T01:42:28.665Z,46.30
2019-01-20T01:44:59.178Z,43.27
2019-01-20T01:47:29.745Z,47.37
2019-01-20T01:50:00.197Z,46.87
2019-01-20T01:52:30.832Z,47.90
2019-01-20T01:55:01.297Z,43.53
2019-01-20T01:57:32.364Z,43.87
2019-01-20T02:00:03.687Z,48.83
2019-01-20T02:02:34.350Z,48.73
2019-01-20T02:05:05.673Z,53.13
2019-01-20T02:07:36.319Z,52.67
2019-01-20T02:10:10.177Z,52.83
2019-01-20T02:12:40.769Z,52.20
2019-01-20T02:15:14.813Z,47.67
2019-01-20T02:17:45.415Z,53.60
2019-01-20T02:20:19.691Z,53.13
2019-01-20T02:22:50.820Z,48.07
2019-01-20T02:25:21.582Z,54.17
2019-01-20T02:27:55.243Z,55.67
2019-01-20T02:30:28.982Z,56.00
2019-01-20T02:32:59.628Z,51.17
2019-01-20T02:35:30.266Z,56.60
2019-01-20T02:38:00.732Z,56.87
2019-01-20T02:40:31.382Z,55.57
2019-01-20T02:43:02.147Z,58.97
2019-01-20T02:45:32.896Z,58.07
2019-01-20T02:48:03.616Z,60.67
2019-01-20T02:50:34.128Z,58.77
2019-01-20T02:53:04.583Z,57.77
2019-01-20T02:55:35.292Z,59.30
2019-01-20T02:58:06.501Z,59.57
2019-01-20T03:00:36.989Z,56.87
2019-01-20T03:03:08.668Z,63.23
2019-01-20T03:05:39.463Z,58.53
2019-01-20T03:08:10.420Z,60.80
2019-01-20T03:10:41.212Z,59.87
2019-01-20T03:13:11.840Z,56.93
2019-01-20T03:15:42.427Z,61.43
2019-01-20T03:18:13.359Z,50.07
2019-01-20T03:20:44.002Z,59.23
2019-01-20T03:23:14.695Z,55.73
2019-01-20T03:25:45.314Z,63.67
2019-01-20T03:28:15.861Z,58.40
2019-01-20T03:30:47.083Z,64.93
2019-01-20T03:33:17.582Z,57.53
2019-01-20T03:35:48.261Z,62.60
2019-01-20T03:38:18.722Z,58.73
2019-01-20T03:40:49.446Z,64.60
2019-01-20T03:43:20.478Z,63.07
2019-01-20T03:45:50.905Z,67.30
2019-01-20T03:48:21.391Z,68.87
2019-01-20T03:50:51.871Z,64.37
2019-01-20T03:53:22.557Z,97.17
2019-01-20T03:55:53.022Z,73.77
2019-01-20T03:58:23.606Z,68.60
2019-01-20T04:00:54.082Z,65.50
2019-01-20T04:03:24.539Z,63.57
2019-01-20T04:05:55.116Z,62.33
2019-01-20T04:08:25.676Z,64.07
2019-01-20T04:10:56.151Z,61.63
2019-01-20T04:13:26.701Z,58.00
2019-01-20T04:15:57.282Z,60.30
2019-01-20T04:18:27.738Z,62.20
2019-01-20T04:20:58.341Z,62.73
2019-01-20T04:23:28.957Z,59.70
2019-01-20T04:25:59.471Z,63.83
2019-01-20T04:28:29.962Z,65.00
2019-01-20T04:31:00.430Z,66.47
2019-01-20T04:33:31.024Z,69.53
2019-01-20T04:36:01.643Z,67.57
2019-01-20T04:38:32.226Z,69.00
2019-01-20T04:41:02.760Z,68.53
2019-01-20T04:43:33.316Z,68.63
2019-01-20T04:46:03.940Z,64.87
2019-01-20T04:48:34.475Z,71.23
2019-01-20T04:51:04.996Z,67.00
2019-01-20T04:53:36.270Z,70.97
2019-01-20T04:56:07.102Z,66.53
2019-01-20T04:58:37.602Z,71.00
2019-01-20T05:01:08.390Z,74.47
2019-01-20T05:03:38.911Z,71.70
2019-01-20T05:06:09.597Z,71.93
2019-01-20T05:08:40.104Z,64.13
2019-01-20T05:11:10.625Z,68.13
2019-01-20T05:13:41.375Z,71.53
2019-01-20T05:16:11.882Z,74.67
2019-01-20T05:18:42.481Z,72.53
2019-01-20T05:21:13.062Z,75.13
2019-01-20T05:23:43.512Z,71.37
2019-01-20T05:26:14.046Z,75.50
2019-01-20T05:28:44.517Z,73.17
2019-01-20T05:31:15.141Z,76.40
2019-01-20T05:33:45.767Z,73.53
2019-01-20T05:36:16.291Z,75.80
2019-01-20T05:38:46.883Z,78.13
2019-01-20T05:41:17.420Z,75.50
2019-01-20T05:43:47.909Z,75.70
2019-01-20T05:46:18.458Z,76.03
2019-01-20T05:48:48.900Z,78.07
2019-01-20T05:51:19.473Z,73.03
2019-01-20T05:53:49.940Z,76.60
2019-01-20T05:56:20.466Z,75.33
2019-01-20T05:58:51.342Z,75.33
2019-01-20T06:01:22.051Z,74.50
2019-01-20T06:03:52.549Z,75.90
2019-01-20T06:06:23.109Z,78.00
2019-01-20T06:08:53.587Z,79.07
2019-01-20T06:11:24.220Z,77.83
2019-01-20T06:13:54.721Z,80.67
2019-01-20T06:16:25.375Z,74.13
2019-01-20T06:18:55.853Z,74.47
2019-01-20T06:21:26.252Z,77.67
2019-01-20T06:23:56.830Z,77.80
2019-01-20T06:26:27.361Z,87.53
2019-01-20T06:28:58.003Z,78.67
2019-01-20T06:31:29.072Z,79.30
2019-01-20T06:34:01.481Z,68.83
2019-01-20T06:36:32.906Z,71.53
2019-01-20T06:39:04.882Z,66.67
2019-01-20T06:41:36.858Z,72.80
2019-01-20T06:44:09.821Z,69.77
2019-01-20T06:46:40.347Z,75.27
2019-01-20T06:49:10.911Z,74.10
2019-01-20T06:51:41.455Z,74.23
2019-01-20T06:54:13.170Z,67.30
2019-01-20T06:56:44.256Z,68.93
2019-01-20T06:59:16.207Z,74.47
2019-01-20T07:01:46.799Z,74.90
2019-01-20T07:04:17.375Z,76.07
2019-01-20T07:06:47.871Z,82.00
2019-01-20T07:09:18.351Z,76.90
2019-01-20T07:11:48.918Z,80.33
2019-01-20T07:14:19.476Z,74.53
2019-01-20T07:16:50.449Z,76.90
2019-01-20T07:19:21.037Z,79.17
2019-01-20T07:21:51.739Z,79.10
2019-01-20T07:24:22.201Z,80.27
2019-01-20T07:26:52.605Z,73.80
2019-01-20T07:29:24.688Z,74.67
2019-01-20T07:31:56.222Z,73.93
2019-01-20T07:34:27.499Z,76.60
2019-01-20T07:36:58.192Z,72.83
2019-01-20T07:39:28.745Z,73.60
2019-01-20T07:41:59.294Z,72.37
2019-01-20T07:44:29.875Z,73.03
2019-01-20T07:47:00.571Z,70.70
2019-01-20T07:49:31.221Z,73.40
2019-01-20T07:52:01.790Z,75.13
2019-01-20T07:54:32.201Z,72.37
2019-01-20T07:57:02.761Z,70.93
2019-01-20T07:59:33.354Z,73.50
2019-01-20T08:02:03.970Z,69.67
2019-01-20T08:04:34.647Z,75.07
2019-01-20T08:07:05.158Z,74.07
2019-01-20T08:09:36.523Z,70.70
2019-01-20T08:12:07.561Z,73.23
2019-01-20T08:14:38.389Z,71.47
2019-01-20T08:17:09.551Z,74.10
2019-01-20T08:19:40.152Z,75.37
2019-01-20T08:22:10.767Z,76.93
2019-01-20T08:24:41.554Z,77.97
2019-01-20T08:27:12.275Z,77.23
2019-01-20T08:29:42.898Z,73.93
2019-01-20T08:32:13.617Z,75.80
2019-01-20T08:34:44.361Z,77.03
2019-01-20T08:37:15.220Z,74.57
2019-01-20T08:39:45.921Z,75.17
2019-01-20T08:42:16.561Z,76.20
2019-01-20T08:44:47.671Z,75.23
2019-01-20T08:47:46.242Z,75.73
2019-01-20T08:50:18.322Z,76.50
2019-01-20T08:52:48.896Z,77.17
2019-01-20T08:55:19.491Z,78.87
2019-01-20T08:57:50.057Z,80.00
2019-01-20T09:00:20.652Z,82.20
2019-01-20T09:02:51.310Z,78.87
2019-01-20T09:05:21.726Z,82.93
2019-01-20T09:07:52.349Z,84.00
2019-01-20T09:10:27.451Z,86.43
2019-01-20T09:13:01.655Z,87.63
2019-01-20T09:15:32.464Z,86.50
2019-01-20T09:18:03.175Z,84.57
2019-01-20T09:20:33.885Z,83.60
2019-01-20T09:23:05.160Z,83.07
2019-01-20T09:25:36.416Z,89.20
2019-01-20T09:28:07.312Z,87.17
2019-01-20T09:30:38.096Z,87.83
2019-01-20T09:33:08.779Z,84.50
2019-01-20T09:35:39.751Z,83.77
2019-01-20T09:38:11.077Z,84.97
2019-01-20T09:40:41.630Z,87.53
2019-01-20T09:43:12.185Z,90.10
2019-01-20T09:45:43.076Z,89.43
2019-01-20T09:48:13.736Z,91.43
2019-01-20T09:50:44.410Z,92.07
2019-01-20T09:53:14.940Z,91.90
2019-01-20T09:55:45.476Z,90.60
2019-01-20T09:58:16.461Z,88.00
2019-01-20T10:00:47.049Z,91.10
2019-01-20T10:03:17.531Z,92.97
2019-01-20T10:05:48.229Z,90.20
2019-01-20T10:08:18.727Z,87.93
2019-01-20T10:10:49.390Z,90.00
2019-01-20T10:13:19.892Z,89.73
2019-01-20T10:15:52.387Z,84.47
2019-01-20T10:18:22.777Z,82.20
2019-01-20T10:20:53.256Z,76.10
2019-01-20T10:23:23.832Z,76.03
2019-01-20T10:25:54.349Z,67.73
2019-01-20T10:28:27.555Z,55.90
2019-01-20T10:30:58.271Z,62.43
2019-01-20T10:33:28.887Z,48.03
2019-01-20T10:36:04.272Z,50.53
2019-01-20T10:38:37.090Z,65.80
2019-01-20T10:41:07.525Z,69.43
2019-01-20T10:43:38.187Z,77.60
2019-01-20T10:46:08.861Z,76.80
2019-01-20T10:48:39.365Z,85.63
2019-01-20T10:51:09.951Z,83.77
2019-01-20T10:53:40.482Z,82.90
2019-01-20T10:56:11.131Z,86.23
2019-01-20T10:58:41.811Z,83.53
2019-01-20T11:01:12.361Z,83.90
2019-01-20T11:03:42.970Z,83.23
2019-01-20T11:06:13.646Z,89.70
2019-01-20T11:08:44.183Z,87.27
2019-01-20T11:11:14.841Z,87.60
2019-01-20T11:13:45.477Z,85.13
2019-01-20T11:16:16.003Z,77.13
2019-01-20T11:18:46.406Z,83.43
2019-01-20T11:21:16.907Z,85.03
2019-01-20T11:23:48.145Z,80.03
2019-01-20T11:26:18.484Z,76.20
2019-01-20T11:28:48.981Z,80.70
2019-01-20T11:31:19.470Z,80.50
2019-01-20T11:33:49.830Z,87.70
2019-01-20T11:36:20.630Z,95.13
2019-01-20T11:38:51.227Z,90.80
2019-01-20T11:41:21.905Z,85.23
2019-01-20T11:43:52.738Z,84.10
2019-01-20T11:46:27.778Z,85.53
2019-01-20T11:48:58.717Z,87.03
2019-01-20T11:51:29.642Z,88.70
2019-01-20T11:54:00.216Z,90.97
2019-01-20T11:56:30.997Z,90.93
2019-01-20T11:59:01.566Z,92.60
2019-01-20T12:01:32.125Z,88.43
2019-01-20T12:04:02.732Z,90.83
2019-01-20T12:06:33.353Z,89.83
2019-01-20T12:09:05.413Z,85.80
2019-01-20T12:11:35.996Z,85.20
2019-01-20T12:14:07.734Z,78.27
2019-01-20T12:16:38.572Z,74.47
2019-01-20T12:19:09.036Z,71.43
2019-01-20T12:21:39.658Z,74.80
2019-01-20T12:24:10.197Z,71.10
2019-01-20T12:26:40.824Z,64.67
2019-01-20T12:29:11.426Z,61.20
2019-01-20T12:31:41.835Z,58.17
2019-01-20T12:34:12.548Z,42.87
2019-01-20T12:36:43.335Z,38.13
2019-01-20T12:39:13.833Z,39.60
2019-01-20T12:41:44.462Z,43.17
2019-01-20T12:44:14.942Z,59.50
2019-01-20T12:46:46.226Z,57.23
2019-01-20T12:49:16.898Z,50.97
2019-01-20T12:51:47.648Z,53.53
2019-01-20T12:54:18.087Z,52.93
2019-01-20T12:56:48.623Z,57.60
2019-01-20T12:59:19.075Z,53.33
2019-01-20T13:01:49.526Z,36.13
2019-01-20T13:04:20.973Z,34.27
2019-01-20T13:06:51.589Z,35.80
2019-01-20T13:09:22.228Z,41.27
2019-01-20T13:11:53.059Z,41.27
2019-01-20T13:14:24.281Z,40.63
2019-01-20T13:16:54.841Z,42.50
2019-01-20T13:19:26.186Z,45.73
2019-01-20T13:21:56.802Z,49.23
2019-01-20T13:24:27.945Z,51.00
2019-01-20T13:26:59.068Z,49.00
2019-01-20T13:29:29.718Z,51.37
2019-01-20T13:32:03.155Z,48.93
2019-01-20T13:34:33.836Z,43.40
2019-01-20T13:37:05.338Z,42.03
2019-01-20T13:39:35.950Z,47.07
2019-01-20T13:42:06.507Z,58.07
2019-01-20T13:44:37.098Z,60.60
2019-01-20T13:47:07.620Z,57.50
2019-01-20T13:49:38.259Z,59.60
2019-01-20T13:52:09.263Z,57.07
2019-01-20T13:54:39.875Z,60.90
2019-01-20T13:57:10.666Z,57.83
2019-01-20T13:59:41.142Z,58.33
2019-01-20T14:02:11.801Z,58.73
2019-01-20T14:04:42.563Z,53.23
2019-01-20T14:07:13.018Z,54.27
2019-01-20T14:09:44.018Z,55.20
2019-01-20T14:12:14.689Z,53.90
2019-01-20T14:14:45.206Z,53.27
2019-01-20T14:17:15.667Z,51.40
2019-01-20T14:19:47.792Z,50.37
2019-01-20T14:22:18.358Z,43.80
2019-01-20T14:24:48.818Z,47.50
2019-01-20T14:27:19.281Z,46.03
2019-01-20T14:29:53.395Z,44.87
2019-01-20T14:32:23.969Z,42.47
2019-01-20T14:34:54.590Z,40.83
2019-01-20T14:37:25.267Z,41.73
2019-01-20T14:39:56.228Z,40.43
2019-01-20T14:42:26.810Z,40.50
2019-01-20T14:45:01.138Z,39.47
2019-01-20T14:47:31.216Z,37.70
2019-01-20T14:50:01.808Z,38.90
2019-01-20T14:52:32.362Z,38.57
2019-01-20T14:55:03.372Z,39.53
2019-01-20T14:57:34.072Z,40.90
2019-01-20T15:00:10.043Z,40.67
2019-01-20T15:02:40.716Z,42.83
2019-01-20T15:05:11.782Z,44.77
2019-01-20T15:07:43.567Z,45.63
2019-01-20T15:10:18.399Z,48.00
2019-01-20T15:12:50.258Z,47.77
2019-01-20T15:15:29.098Z,51.53
2019-01-20T15:17:59.923Z,54.43
2019-01-20T15:20:30.673Z,56.93
2019-01-20T15:23:04.605Z,58.43
2019-01-20T15:25:35.982Z,61.27
2019-01-20T15:28:08.477Z,61.77
2019-01-20T15:30:46.495Z,62.57
2019-01-20T15:33:17.182Z,62.93
2019-01-20T15:35:51.471Z,66.00
2019-01-20T15:38:22.506Z,64.90
2019-01-20T15:40:53.267Z,64.07
2019-01-20T15:43:25.199Z,67.47
2019-01-20T15:45:57.037Z,72.20
2019-01-20T15:48:31.041Z,71.77
2019-01-20T15:51:05.256Z,74.80
2019-01-20T15:53:37.113Z,75.77
2019-01-20T15:56:11.338Z,77.17
2019-01-20T15:58:44.063Z,84.60
2019-01-20T16:01:15.202Z,84.33
2019-01-20T16:03:47.201Z,90.30
2019-01-20T16:06:22.431Z,89.50
2019-01-20T16:08:54.799Z,86.67
2019-01-20T16:11:26.442Z,92.47
2019-01-20T16:13:58.991Z,96.57
2019-01-20T16:16:30.829Z,97.70
2019-01-20T16:19:02.089Z,105.23
2019-01-20T16:21:37.916Z,108.50
2019-01-20T16:24:09.067Z,110.97
2019-01-20T16:26:42.997Z,118.13
2019-01-20T16:29:13.881Z,122.07
2019-01-20T16:31:49.614Z,123.27
2019-01-20T16:34:23.574Z,124.17
2019-01-20T16:36:58.863Z,127.30
2019-01-20T16:39:30.615Z,124.83
2019-01-20T16:42:03.898Z,131.43
2019-01-20T16:44:35.823Z,132.03
2019-01-20T16:47:07.574Z,125.50
2019-01-20T16:49:48.487Z,129.23
2019-01-20T16:52:20.457Z,129.50
2019-01-20T16:54:58.475Z,124.77
2019-01-20T16:57:33.302Z,131.23
2019-01-20T17:00:03.996Z,134.57
2019-01-20T17:02:50.642Z,133.67
2019-01-20T17:05:21.358Z,134.00
2019-01-20T17:07:52.126Z,137.53
2019-01-20T17:10:27.185Z,138.70
2019-01-20T17:13:00.358Z,142.90
2019-01-20T17:15:42.043Z,138.53
2019-01-20T17:18:16.968Z,140.07
2019-01-20T17:21:00.786Z,148.33
2019-01-20T17:23:32.873Z,144.33
2019-01-20T17:26:11.643Z,141.70
2019-01-20T17:28:52.157Z,145.87
2019-01-20T17:31:24.102Z,138.23
2019-01-20T17:33:59.108Z,145.10
2019-01-20T17:36:34.631Z,147.50
2019-01-20T17:39:13.831Z,147.43
2019-01-20T17:41:48.387Z,149.30
2019-01-20T17:44:21.077Z,159.77
2019-01-20T17:46:55.087Z,150.07
2019-01-20T17:49:37.567Z,148.80
2019-01-20T17:52:08.266Z,147.77
2019-01-20T17:54:41.633Z,146.63
2019-01-20T17:57:13.967Z,147.27
2019-01-20T17:59:48.403Z,153.33
2019-01-20T18:02:19.705Z,148.27
2019-01-20T18:04:53.180Z,152.33
2019-01-20T18:07:26.118Z,152.60
2019-01-20T18:10:01.253Z,154.97
2019-01-20T18:12:35.252Z,156.60
2019-01-20T18:15:11.066Z,159.57
2019-01-20T18:17:42.345Z,155.47
2019-01-20T18:20:20.097Z,152.90
2019-01-20T18:22:51.899Z,158.23
2019-01-20T18:25:34.151Z,157.90
2019-01-20T18:28:13.422Z,157.63
2019-01-20T18:30:47.494Z,155.70
2019-01-20T18:33:21.097Z,152.17
2019-01-20T18:35:58.024Z,150.23
2019-01-20T18:38:29.895Z,153.63
2019-01-20T18:41:00.805Z,150.63
2019-01-20T18:43:32.507Z,156.13
2019-01-20T19:04:25.076Z,153.90
2019-01-20T19:07:12.565Z,154.00
2019-01-20T19:10:16.595Z,149.67
2019-01-20T19:12:47.918Z,142.43
2019-01-20T19:15:20.171Z,146.20
2019-01-20T19:18:26.409Z,140.97
2019-01-20T19:21:06.728Z,143.90
2019-01-20T19:23:39.743Z,132.27
2019-01-20T19:26:15.801Z,131.20
2019-01-20T19:28:51.786Z,126.07
2019-01-20T19:31:24.002Z,121.77
2019-01-20T19:34:02.858Z,123.63
2019-01-20T19:36:34.869Z,124.37
2019-01-20T19:39:12.950Z,129.83
2019-01-20T19:41:48.101Z,123.63
2019-01-20T19:44:22.134Z,129.73
2019-01-20T19:46:52.985Z,125.40
2019-01-20T19:49:27.583Z,121.63
2019-01-20T19:52:11.338Z,96.80
2019-01-20T19:55:03.075Z,102.83
2019-01-20T19:57:35.624Z,103.93
2019-01-20T20:00:18.066Z,96.33
2019-01-20T20:02:48.900Z,98.57
2019-01-20T20:05:30.754Z,100.83
2019-01-20T20:08:03.254Z,111.77
2019-01-20T20:10:37.571Z,125.93
2019-01-20T20:13:15.288Z,132.87
2019-01-20T20:15:52.386Z,125.83
2019-01-20T20:18:30.653Z,133.07
2019-01-20T20:21:09.090Z,125.97
2019-01-20T20:23:48.300Z,133.37
2019-01-20T20:26:26.657Z,125.23
2019-01-20T20:29:03.145Z,123.17
2019-01-20T20:31:44.518Z,126.53
2019-01-20T20:34:18.749Z,125.23
2019-01-20T20:36:50.503Z,127.77
2019-01-20T20:39:27.628Z,133.07
2019-01-20T20:42:02.969Z,120.60
2019-01-20T20:44:36.431Z,128.07
2019-01-20T20:47:10.943Z,129.17
2019-01-20T20:49:48.344Z,108.90
2019-01-20T20:52:20.718Z,106.00
2019-01-20T20:54:54.325Z,123.43
2019-01-20T20:57:30.169Z,120.37
2019-01-20T21:00:05.746Z,119.77
2019-01-20T21:02:36.418Z,117.83
2019-01-20T21:05:13.166Z,113.37
2019-01-20T21:07:44.955Z,116.83
2019-01-20T21:10:23.795Z,114.40
2019-01-20T21:12:58.006Z,114.57
2019-01-20T21:15:36.208Z,109.23
2019-01-20T21:18:07.809Z,109.00
2019-01-20T21:20:39.817Z,118.80
2019-01-20T21:23:13.640Z,124.00
2019-01-20T21:25:45.694Z,124.20
2019-01-20T21:28:19.479Z,140.10
2019-01-20T21:30:54.900Z,139.13
2019-01-20T21:33:25.704Z,140.03
2019-01-20T21:35:59.003Z,165.17
2019-01-20T21:38:32.383Z,166.13
2019-01-20T21:41:02.965Z,159.97
2019-01-20T21:43:35.563Z,156.83
2019-01-20T21:46:07.354Z,155.20
2019-01-20T21:48:40.035Z,146.50
2019-01-20T21:51:13.745Z,154.10
2019-01-20T21:53:44.306Z,131.83
2019-01-20T21:56:14.986Z,132.70
2019-01-20T21:58:45.607Z,155.23
2019-01-20T22:01:16.144Z,160.00
2019-01-20T22:03:46.875Z,165.40
2019-01-20T22:06:17.497Z,161.00
2019-01-20T22:08:48.024Z,172.10
2019-01-20T22:11:19.125Z,172.40
2019-01-20T22:13:49.658Z,173.97
2019-01-20T22:16:20.305Z,168.60
2019-01-20T22:18:50.995Z,174.00
2019-01-20T22:21:21.545Z,173.80
2019-01-20T22:23:52.090Z,166.83
2019-01-20T22:26:22.665Z,164.83
2019-01-20T22:28:53.110Z,164.83
2019-01-20T22:31:23.759Z,149.53
2019-01-20T22:33:54.377Z,144.97
2019-01-20T22:36:24.817Z,143.73
2019-01-20T22:38:55.506Z,153.13
2019-01-20T22:41:26.017Z,151.67
2019-01-20T22:43:56.494Z,154.53
2019-01-20T22:46:27.566Z,153.20
2019-01-20T22:48:58.242Z,152.20
2019-01-20T22:51:29.170Z,157.40
2019-01-20T22:53:59.937Z,156.40
2019-01-20T22:56:30.578Z,154.37
2019-01-20T22:59:01.215Z,146.23
2019-01-20T23:01:32.428Z,134.63
2019-01-20T23:04:03.065Z,130.97
2019-01-20T23:06:33.866Z,138.03
2019-01-20T23:09:06.696Z,149.33
2019-01-20T23:11:37.606Z,156.97
2019-01-20T23:14:08.318Z,155.73
2019-01-20T23:16:39.065Z,161.07
2019-01-20T23:19:09.689Z,152.27
2019-01-20T23:21:40.403Z,149.60
2019-01-20T23:24:10.997Z,156.37
2019-01-20T23:26:42.066Z,157.97
2019-01-20T23:29:12.785Z,154.53
2019-01-20T23:31:43.505Z,151.20
2019-01-20T23:34:14.177Z,148.87
2019-01-20T23:36:44.671Z,147.63
2019-01-20T23:39:15.145Z,148.67
2019-01-20T23:41:45.637Z,145.40
2019-01-20T23:44:16.245Z,145.80
2019-01-20T23:46:46.825Z,146.37
2019-01-20T23:49:17.517Z,150.87
2019-01-20T23:51:48.154Z,149.70
2019-01-20T23:54:19.278Z,149.53
2019-01-20T23:56:50.077Z,146.57
2019-01-20T23:59:20.549Z,145.47
